Time;durP1;ratioP1;P1;durP2;ratioP2;P2;SDS_P1;SDS_P2;PMS_P1;PMS_P2;Temp;Humidity;BMP_temperature;BMP_pressure;BME280_temperature;BME280_humidity;BME280_pressure;Samples;Min_cycle;Max_cycle;Signal;HPM_P1;HPM_P2
2022/09/09 00:11:56;;;;;;;;;;;;;;;15.00;95.43;99979.22;5680408;23;1811;-66
2022/09/09 00:14:34;;;;;;;;;;;;;;;15.01;95.51;99980.81;5013492;28;830;-65
2022/09/09 00:17:05;;;;;;;;;;;;;;;15.00;95.58;99979.22;4995828;28;1253;-65
2022/09/09 00:19:51;;;;;;;;;;;;;;;15.04;95.64;99985.50;5013617;28;830;-65
2022/09/09 00:22:20;;;;;;;;;;;;;;;15.04;95.53;99980.75;5013301;28;1910;-65
2022/09/09 00:24:49;;;;;;;;;;;;;;;15.05;95.74;99978.75;5013505;28;814;-65
2022/09/09 00:27:16;;;;;;;;;;;;;;;15.04;95.61;99986.31;5013335;28;878;-65
2022/09/09 00:30:08;;;;;;;;;;;;;;;15.06;95.69;99985.84;4995556;28;1297;-65
2022/09/09 00:32:35;;;;;;;;;;;;;;;15.05;95.93;99978.75;4989617;28;1195;-65
2022/09/09 00:35:18;;;;;;;;;;;;;;;15.04;95.84;99977.16;5013107;28;857;-65
2022/09/09 00:37:47;;;;;;;;;;;;;;;15.02;95.88;99983.16;5013330;28;997;-65
2022/09/09 00:40:23;;;;;;;;;;;;;;;14.90;95.40;99975.47;4995347;28;1414;-65
2022/09/09 00:42:55;;;;;;;;;;;;;;;14.66;95.82;99983.84;5012760;28;1886;-65
2022/09/09 00:45:34;;;;;;;;;;;;;;;14.47;96.40;99987.38;4995311;28;2599;-65
2022/09/09 00:48:04;;;;;;;;;;;;;;;14.25;96.76;99984.16;5012830;28;826;-65
2022/09/09 00:50:36;;;;;;;;;;;;;;;14.08;97.39;99978.50;5012855;28;806;-65
2022/09/09 00:53:03;;;;;;;;;;;;;;;14.09;98.28;99982.81;5012792;28;881;-66
2022/09/09 00:55:33;;;;;;;;;;;;;;;14.16;98.27;99972.81;5012690;28;1027;-65
2022/09/09 00:58:01;;;;;;;;;;;;;;;14.17;98.53;99980.72;5012673;28;791;-65
2022/09/09 01:00:30;;;;;;;;;;;;;;;14.18;98.78;99981.50;5013066;28;841;-65
2022/09/09 01:03:04;;;;;;;;;;;;;;;14.13;99.21;99984.78;5012682;28;1886;-65
2022/09/09 01:05:37;;;;;;;;;;;;;;;14.13;99.61;99980.00;4994899;28;1397;-65
2022/09/09 01:08:09;;;;;;;;;;;;;;;14.17;99.70;99983.50;4994930;28;1538;-66
2022/09/09 01:10:39;;;;;;;;;;;;;;;14.22;99.57;99985.00;5012424;28;972;-65
2022/09/09 01:13:13;;;;;;;;;;;;;;;14.18;99.31;99987.06;4991528;28;1393;-65
2022/09/09 01:15:42;;;;;;;;;;;;;;;14.03;99.35;99981.72;4992747;28;859;-66
2022/09/09 01:18:13;;;;;;;;;;;;;;;13.95;99.69;99983.03;4992639;28;909;-65
2022/09/09 01:20:58;;;;;;;;;;;;;;;13.95;100.00;99974.72;4975267;28;1254;-65
2022/09/09 01:23:48;;;;;;;;;;;;;;;14.01;100.00;99981.38;4992536;28;1934;-66
2022/09/09 01:26:26;;;;;;;;;;;;;;;14.12;100.00;99978.41;4940149;28;1381;-65
2022/09/09 01:28:53;;;;;;;;;;;;;;;14.22;100.00;99976.66;4992669;28;858;-66
2022/09/09 01:31:29;;;;;;;;;;;;;;;14.22;99.61;99977.44;4992532;28;807;-66
2022/09/09 01:33:55;;;;;;;;;;;;;;;14.09;99.37;99968.94;4992514;28;901;-66
2022/09/09 01:36:44;;;;;;;;;;;;;;;13.97;99.29;99963.19;4992399;28;855;-66
2022/09/09 01:39:11;;;;;;;;;;;;;;;13.87;99.74;99957.38;4992390;28;1037;-66
2022/09/09 01:41:38;;;;;;;;;;;;;;;13.88;100.00;99953.38;4974731;28;1229;-66
2022/09/09 01:44:06;;;;;;;;;;;;;;;13.94;100.00;99964.81;4992094;28;1882;-66
2022/09/09 01:46:32;;;;;;;;;;;;;;;13.99;100.00;99966.31;4992263;28;866;-66
2022/09/09 01:49:01;;;;;;;;;;;;;;;14.01;100.00;99959.13;4974813;28;1190;-66
2022/09/09 01:51:28;;;;;;;;;;;;;;;14.10;100.00;99955.81;4992274;28;811;-66
2022/09/09 01:53:55;;;;;;;;;;;;;;;14.08;100.00;99961.81;4974787;28;1407;-66
2022/09/09 01:56:33;;;;;;;;;;;;;;;14.13;100.00;99962.53;4974721;28;1206;-66
2022/09/09 01:59:18;;;;;;;;;;;;;;;14.14;100.00;99958.53;4992223;28;791;-66
2022/09/09 02:01:52;;;;;;;;;;;;;;;14.12;100.00;99958.19;4992254;28;799;-65
2022/09/09 02:04:34;;;;;;;;;;;;;;;13.92;99.98;99956.13;4992112;28;838;-66
2022/09/09 02:07:01;;;;;;;;;;;;;;;13.71;100.00;99962.78;4992215;28;810;-66
2022/09/09 02:09:30;;;;;;;;;;;;;;;13.58;100.00;99959.81;4992126;28;822;-66
2022/09/09 02:12:09;;;;;;;;;;;;;;;13.44;100.00;99962.78;4988142;28;1204;-66
2022/09/09 02:14:42;;;;;;;;;;;;;;;13.29;100.00;99964.97;4972690;28;811;-66
2022/09/09 02:17:14;;;;;;;;;;;;;;;13.28;100.00;99961.41;4973064;28;850;-66
2022/09/09 02:19:48;;;;;;;;;;;;;;;13.23;100.00;99955.53;4972620;28;1333;-66
2022/09/09 02:22:19;;;;;;;;;;;;;;;13.13;100.00;99968.31;4972536;28;1956;-66
2022/09/09 02:24:47;;;;;;;;;;;;;;;13.03;100.00;99972.78;4972519;28;803;-66
2022/09/09 02:27:16;;;;;;;;;;;;;;;13.00;100.00;99973.63;4972676;28;870;-66
2022/09/09 02:29:44;;;;;;;;;;;;;;;12.97;100.00;99982.81;4972781;28;799;-66
2022/09/09 02:32:16;;;;;;;;;;;;;;;12.94;100.00;99978.06;4972827;28;885;-66
2022/09/09 02:34:49;;;;;;;;;;;;;;;12.92;100.00;99993.56;4972479;28;839;-66
2022/09/09 02:37:19;;;;;;;;;;;;;;;12.87;100.00;99992.81;4972500;28;843;-65
2022/09/09 02:39:46;;;;;;;;;;;;;;;12.83;100.00;99994.84;4954978;28;1296;-66
2022/09/09 02:42:14;;;;;;;;;;;;;;;12.78;100.00;99995.28;4972340;28;1961;-65
2022/09/09 02:44:42;;;;;;;;;;;;;;;12.76;100.00;99983.03;4972367;28;813;-66
2022/09/09 02:47:22;;;;;;;;;;;;;;;12.72;100.00;99987.84;4954992;28;1273;-65
2022/09/09 02:49:49;;;;;;;;;;;;;;;12.70;100.00;99987.47;4972412;28;877;-65
2022/09/09 02:52:22;;;;;;;;;;;;;;;12.69;100.00;99989.44;4972275;28;847;-65
2022/09/09 02:54:55;;;;;;;;;;;;;;;12.66;100.00;99982.72;4972267;28;1220;-65
2022/09/09 02:57:27;;;;;;;;;;;;;;;12.62;100.00;99978.44;4975707;28;1230;-65
2022/09/09 02:59:57;;;;;;;;;;;;;;;12.59;100.00;99974.50;4975855;28;799;-65
2022/09/09 03:02:25;;;;;;;;;;;;;;;12.57;100.00;99971.34;4975747;28;1955;-65
2022/09/09 03:04:51;;;;;;;;;;;;;;;12.55;100.00;99968.19;4975694;28;875;-65
2022/09/09 03:07:19;;;;;;;;;;;;;;;12.53;100.00;99967.81;4975758;28;890;-65
2022/09/09 03:09:46;;;;;;;;;;;;;;;12.51;100.00;99961.91;4975529;28;827;-65
2022/09/09 03:12:13;;;;;;;;;;;;;;;12.46;100.00;99963.16;4975703;28;1195;-65
2022/09/09 03:14:40;;;;;;;;;;;;;;;12.36;100.00;99964.03;4975565;28;810;-65
2022/09/09 03:17:07;;;;;;;;;;;;;;;12.33;100.00;99964.84;4975485;28;866;-65
2022/09/09 03:19:36;;;;;;;;;;;;;;;12.35;100.00;99967.19;4975472;28;890;-65
2022/09/09 03:22:04;;;;;;;;;;;;;;;12.39;100.00;99967.97;4975415;28;2041;-65
2022/09/09 03:24:30;;;;;;;;;;;;;;;12.39;100.00;99965.97;4975306;28;839;-65
2022/09/09 03:26:57;;;;;;;;;;;;;;;12.37;100.00;99976.66;4975323;28;850;-65
2022/09/09 03:29:24;;;;;;;;;;;;;;;12.36;100.00;99975.13;4975579;28;827;-65
2022/09/09 03:31:51;;;;;;;;;;;;;;;12.40;100.00;99977.88;4975275;28;902;-65
2022/09/09 03:34:18;;;;;;;;;;;;;;;12.41;100.00;99971.88;4957685;28;1434;-65
2022/09/09 03:36:45;;;;;;;;;;;;;;;12.44;100.00;99979.41;4973844;28;1272;-65
2022/09/09 03:39:12;;;;;;;;;;;;;;;12.45;100.00;99972.63;4974986;28;843;-65
2022/09/09 03:41:39;;;;;;;;;;;;;;;12.48;100.00;99962.72;4975104;28;882;-65
2022/09/09 03:44:06;;;;;;;;;;;;;;;12.52;100.00;99980.09;4974949;28;1882;-65
2022/09/09 03:46:33;;;;;;;;;;;;;;;12.56;100.00;99983.63;4974978;28;846;-65
2022/09/09 03:49:01;;;;;;;;;;;;;;;12.57;100.00;99984.44;4975122;28;842;-65
2022/09/09 03:51:27;;;;;;;;;;;;;;;12.58;100.00;99991.53;4974900;28;870;-65
2022/09/09 03:53:57;;;;;;;;;;;;;;;12.61;100.00;99985.97;4974865;28;807;-65
2022/09/09 03:56:25;;;;;;;;;;;;;;;12.66;100.00;99984.72;4974816;28;1241;-65
2022/09/09 03:58:51;;;;;;;;;;;;;;;12.69;100.00;99989.44;4974813;28;925;-65
2022/09/09 04:01:17;;;;;;;;;;;;;;;12.73;100.00;99981.88;4974776;28;905;-65
2022/09/09 04:03:47;;;;;;;;;;;;;;;12.75;100.00;99979.47;4974670;28;1886;-65
2022/09/09 04:06:14;;;;;;;;;;;;;;;12.80;100.00;99984.56;4957106;28;839;-65
2022/09/09 04:08:41;;;;;;;;;;;;;;;12.82;100.00;99984.94;4974548;28;921;-65
2022/09/09 04:11:08;;;;;;;;;;;;;;;12.85;100.00;99977.78;4974672;28;966;-66
2022/09/09 04:13:37;;;;;;;;;;;;;;;12.88;100.00;99979.72;5008029;28;1451;-65
2022/09/09 04:16:03;;;;;;;;;;;;;;;12.93;100.00;99981.25;5013506;28;881;-66
2022/09/09 04:18:30;;;;;;;;;;;;;;;12.99;100.00;99990.69;5013566;28;901;-66
2022/09/09 04:20:57;;;;;;;;;;;;;;;13.04;100.00;99991.03;5013397;28;905;-66
2022/09/09 04:23:25;;;;;;;;;;;;;;;13.07;100.00;99987.41;5013498;28;1978;-65
2022/09/09 04:25:53;;;;;;;;;;;;;;;13.13;100.00;99982.19;5013327;28;865;-66
2022/09/09 04:28:20;;;;;;;;;;;;;;;13.22;100.00;99979.69;5013208;28;818;-66
2022/09/09 04:30:47;;;;;;;;;;;;;;;13.32;100.00;99982.78;5013243;28;810;-66
2022/09/09 04:33:14;;;;;;;;;;;;;;;13.45;100.00;99986.56;5013158;28;831;-66
2022/09/09 04:35:49;;;;;;;;;;;;;;;13.52;100.00;99985.69;5013162;28;834;-66
2022/09/09 04:38:17;;;;;;;;;;;;;;;13.63;99.54;99995.47;5013020;28;826;-66
2022/09/09 04:40:46;;;;;;;;;;;;;;;13.76;98.92;99994.84;5013012;28;811;-65
2022/09/09 04:43:14;;;;;;;;;;;;;;;13.88;98.52;99991.50;5012968;28;1886;-65
2022/09/09 04:45:43;;;;;;;;;;;;;;;14.00;98.18;99990.16;5012918;28;849;-65
2022/09/09 04:48:10;;;;;;;;;;;;;;;14.15;97.44;99999.03;5012907;28;890;-65
2022/09/09 04:50:36;;;;;;;;;;;;;;;14.28;97.22;99992.44;5012818;28;892;-65
2022/09/09 04:53:03;;;;;;;;;;;;;;;14.43;96.43;99990.19;5012774;28;815;-65
2022/09/09 04:55:30;;;;;;;;;;;;;;;14.55;95.41;99996.34;5012744;28;826;-66
2022/09/09 04:57:57;;;;;;;;;;;;;;;14.67;94.90;99996.53;5012691;28;835;-65
2022/09/09 05:00:24;;;;;;;;;;;;;;;14.82;93.92;99996.28;5012678;28;835;-65
2022/09/09 05:02:51;;;;;;;;;;;;;;;14.90;92.81;99998.50;5012519;28;1886;-65
2022/09/09 05:05:20;;;;;;;;;;;;;;;14.99;91.75;99989.56;5012455;28;1156;-65
2022/09/09 05:07:47;;;;;;;;;;;;;;;15.14;91.30;99992.84;5012446;28;838;-65
2022/09/09 05:10:16;;;;;;;;;;;;;;;15.30;90.50;99986.56;4994799;28;1217;-66
2022/09/09 05:12:52;;;;;;;;;;;;;;;15.48;89.70;99981.38;5012195;28;1496;-65
2022/09/09 05:15:20;;;;;;;;;;;;;;;15.71;88.91;99988.06;5012422;28;827;-65
2022/09/09 05:17:47;;;;;;;;;;;;;;;15.91;88.17;99988.78;5012302;28;894;-65
2022/09/09 05:20:13;;;;;;;;;;;;;;;16.13;87.12;99982.72;5011969;28;873;-66
2022/09/09 05:22:40;;;;;;;;;;;;;;;16.35;86.25;99985.72;5012240;28;1910;-65
2022/09/09 05:25:07;;;;;;;;;;;;;;;16.60;85.61;99979.50;5012331;28;851;-65
2022/09/09 05:27:34;;;;;;;;;;;;;;;16.87;85.01;99975.59;5012482;28;823;-65
2022/09/09 05:30:01;;;;;;;;;;;;;;;17.16;84.07;99972.78;4994516;28;1286;-65
2022/09/09 05:32:33;;;;;;;;;;;;;;;17.43;82.89;99977.97;5012499;28;894;-65
2022/09/09 05:35:01;;;;;;;;;;;;;;;17.72;81.89;99977.88;5012127;28;839;-65
2022/09/09 05:37:29;;;;;;;;;;;;;;;18.00;80.89;99972.63;5011939;28;929;-65
2022/09/09 05:39:56;;;;;;;;;;;;;;;18.26;79.66;99978.16;5012066;28;823;-65
2022/09/09 05:42:22;;;;;;;;;;;;;;;18.46;78.20;99972.31;5011921;28;1957;-65
2022/09/09 05:44:50;;;;;;;;;;;;;;;18.63;76.99;99975.72;5011936;28;885;-63
2022/09/09 05:47:17;;;;;;;;;;;;;;;18.80;76.39;99971.53;5011970;28;850;-63
2022/09/09 05:49:45;;;;;;;;;;;;;;;18.99;75.36;99972.44;5012118;28;855;-63
2022/09/09 05:52:11;;;;;;;;;;;;;;;19.23;74.18;99975.53;5011866;28;1097;-64
2022/09/09 05:54:38;;;;;;;;;;;;;;;19.41;73.33;99972.06;5011903;28;807;-64
2022/09/09 05:57:05;;;;;;;;;;;;;;;19.56;72.05;99980.69;4994139;28;1298;-63
2022/09/09 05:59:32;;;;;;;;;;;;;;;19.71;71.15;99986.53;5011880;28;822;-64
2022/09/09 06:01:58;;;;;;;;;;;;;;;19.86;70.46;99984.72;5011770;28;853;-64
2022/09/09 06:04:26;;;;;;;;;;;;;;;20.10;69.17;99987.78;5011724;28;1890;-64
2022/09/09 06:06:52;;;;;;;;;;;;;;;20.30;68.43;99978.91;4994034;28;1250;-64
2022/09/09 06:09:19;;;;;;;;;;;;;;;20.46;67.70;99982.69;5011745;28;830;-64
2022/09/09 06:11:45;;;;;;;;;;;;;;;20.57;67.22;99974.59;5011643;28;1249;-64
2022/09/09 06:14:12;;;;;;;;;;;;;;;20.71;67.13;99978.81;5011715;28;807;-64
2022/09/09 06:16:38;;;;;;;;;;;;;;;20.84;66.51;99979.44;5011622;28;831;-63
2022/09/09 06:19:04;;;;;;;;;;;;;;;21.04;65.54;99981.78;5011641;28;866;-64
2022/09/09 06:21:36;;;;;;;;;;;;;;;21.31;64.21;99980.91;5011813;28;878;-63
2022/09/09 06:24:03;;;;;;;;;;;;;;;21.41;63.59;99988.09;5011471;28;1914;-63
2022/09/09 06:26:32;;;;;;;;;;;;;;;21.49;63.51;99991.38;5011601;28;901;-64
2022/09/09 06:28:59;;;;;;;;;;;;;;;21.65;62.19;99990.22;5011504;28;846;-63
2022/09/09 06:31:30;;;;;;;;;;;;;;;22.15;60.12;100001.09;5013510;28;858;-63
2022/09/09 06:33:57;;;;;;;;;;;;;;;22.84;56.36;99988.72;5015417;28;926;-63
2022/09/09 06:36:25;;;;;;;;;;;;;;;23.37;53.94;99997.63;5015232;28;941;-63
2022/09/09 06:38:51;;;;;;;;;;;;;;;24.04;51.74;100004.34;5015335;28;917;-64
2022/09/09 06:41:22;;;;;;;;;;;;;;;24.91;49.01;100002.13;5015266;28;869;-64
2022/09/09 06:43:49;;;;;;;;;;;;;;;25.94;46.63;100008.22;5015529;28;1975;-64
2022/09/09 06:46:22;;;;;;;;;;;;;;;26.84;44.09;100011.50;5015340;28;799;-64
2022/09/09 06:48:48;;;;;;;;;;;;;;;27.73;41.86;100007.25;5015181;28;869;-64
2022/09/09 06:51:20;;;;;;;;;;;;;;;27.97;40.58;100003.88;4997556;28;1510;-64
2022/09/09 06:53:49;;;;;;;;;;;;;;;28.29;39.84;100009.22;5014979;28;921;-63
2022/09/09 06:56:23;;;;;;;;;;;;;;;28.37;38.41;100012.31;5014978;28;835;-64
2022/09/09 06:58:51;;;;;;;;;;;;;;;28.39;38.43;100012.56;5015033;28;803;-63
2022/09/09 07:01:25;;;;;;;;;;;;;;;28.78;37.71;100017.34;5014847;28;826;-64
2022/09/09 07:03:53;;;;;;;;;;;;;;;29.31;36.30;100016.00;5014817;28;1913;-64
2022/09/09 07:06:25;;;;;;;;;;;;;;;29.35;35.70;100014.94;5014754;28;914;-64
2022/09/09 07:08:53;;;;;;;;;;;;;;;28.99;34.47;100015.66;5014700;28;799;-63
2022/09/09 07:11:20;;;;;;;;;;;;;;;28.91;34.35;100006.13;5014930;28;941;-64
2022/09/09 07:13:47;;;;;;;;;;;;;;;29.00;34.24;99997.31;5014496;28;1423;-63
2022/09/09 07:16:15;;;;;;;;;;;;;;;29.36;33.81;99993.72;5014681;28;894;-63
2022/09/09 07:18:42;;;;;;;;;;;;;;;29.68;33.60;99986.19;5014546;28;862;-63
2022/09/09 07:21:13;;;;;;;;;;;;;;;29.75;33.13;99995.50;5014517;28;826;-63
2022/09/09 07:23:40;;;;;;;;;;;;;;;29.38;33.99;99991.09;5014403;28;1973;-63
2022/09/09 07:26:11;;;;;;;;;;;;;;;29.06;34.05;99997.25;5014351;28;886;-63
2022/09/09 07:28:38;;;;;;;;;;;;;;;28.62;34.72;99984.84;5014580;28;1320;-63
2022/09/09 07:31:05;;;;;;;;;;;;;;;28.10;35.46;99989.13;5014743;28;779;-63
2022/09/09 07:33:35;;;;;;;;;;;;;;;28.01;35.87;99989.44;5014527;28;882;-63
2022/09/09 07:36:06;;;;;;;;;;;;;;;28.08;35.45;99989.69;5014347;28;866;-63
2022/09/09 07:38:38;;;;;;;;;;;;;;;28.22;35.68;99989.88;5014170;28;937;-63
2022/09/09 07:41:06;;;;;;;;;;;;;;;28.55;34.68;99989.03;5013984;28;893;-63
2022/09/09 07:43:33;;;;;;;;;;;;;;;28.98;34.73;99996.28;5013917;28;1949;-63
2022/09/09 07:46:01;;;;;;;;;;;;;;;29.72;33.36;99980.22;5014296;28;834;-63
2022/09/09 07:48:27;;;;;;;;;;;;;;;30.17;32.95;99988.31;5013942;28;902;-63
2022/09/09 07:51:02;;;;;;;;;;;;;;;30.59;32.22;99983.16;5014021;28;806;-63
2022/09/09 07:53:28;;;;;;;;;;;;;;;30.86;31.45;99980.47;5014194;28;850;-63
2022/09/09 07:55:55;;;;;;;;;;;;;;;30.77;31.35;99978.78;5014215;28;1291;-63
2022/09/09 07:58:22;;;;;;;;;;;;;;;30.61;31.39;99977.69;5014201;28;850;-63
2022/09/09 08:00:49;;;;;;;;;;;;;;;30.86;31.54;99978.41;5013774;28;894;-64
2022/09/09 08:03:16;;;;;;;;;;;;;;;31.14;30.70;99965.81;5013949;28;1874;-64
2022/09/09 08:05:43;;;;;;;;;;;;;;;30.92;31.53;99976.25;5013644;28;870;-64
2022/09/09 08:08:10;;;;;;;;;;;;;;;30.60;32.06;99967.59;5013829;28;884;-65
2022/09/09 08:10:37;;;;;;;;;;;;;;;30.98;31.89;99967.59;4996279;28;2224;-64
2022/09/09 08:13:05;;;;;;;;;;;;;;;31.06;31.86;99964.88;5013686;28;1274;-65
2022/09/09 08:15:34;;;;;;;;;;;;;;;31.31;31.70;99952.03;5013713;28;953;-66
2022/09/09 08:18:00;;;;;;;;;;;;;;;31.02;31.61;99953.78;5013815;28;853;-66
2022/09/09 08:20:27;;;;;;;;;;;;;;;31.10;31.30;99939.66;5013575;28;795;-65
2022/09/09 08:22:55;;;;;;;;;;;;;;;31.14;31.54;99952.28;5013416;28;1973;-66
2022/09/09 08:25:22;;;;;;;;;;;;;;;31.13;31.34;99949.97;5013342;28;857;-66
2022/09/09 08:27:48;;;;;;;;;;;;;;;31.20;31.30;99945.75;5013345;28;806;-66
2022/09/09 08:30:14;;;;;;;;;;;;;;;31.16;30.77;99948.16;5013341;28;879;-66
2022/09/09 08:32:41;;;;;;;;;;;;;;;30.66;31.27;99958.94;5013256;28;889;-66
2022/09/09 08:35:08;;;;;;;;;;;;;;;30.56;31.51;99944.31;5013470;28;842;-66
2022/09/09 08:37:34;;;;;;;;;;;;;;;30.53;31.76;99942.53;5013194;28;819;-65
2022/09/09 08:40:02;;;;;;;;;;;;;;;30.86;31.48;99932.75;5013745;28;842;-65
2022/09/09 08:42:36;;;;;;;;;;;;;;;30.72;31.10;99934.75;4995646;28;1973;-65
2022/09/09 08:45:19;;;;;;;;;;;;;;;30.73;31.32;99933.44;5013002;28;998;-65
2022/09/09 08:48:09;;;;;;;;;;;;;;;31.05;30.55;99937.69;5012951;28;858;-65
2022/09/09 08:50:38;;;;;;;;;;;;;;;31.19;29.14;99938.47;5012879;28;819;-65
2022/09/09 08:53:10;;;;;;;;;;;;;;;31.09;29.20;99936.03;5012209;28;843;-64
2022/09/09 08:55:51;;;;;;;;;;;;;;;30.79;29.20;99924.00;5012746;28;871;-64
2022/09/09 08:58:17;;;;;;;;;;;;;;;30.47;29.50;99934.06;5012572;28;975;-64
2022/09/09 09:00:52;;;;;;;;;;;;;;;30.13;29.37;99925.16;4995124;28;1213;-64
2022/09/09 09:03:26;;;;;;;;;;;;;;;30.28;28.76;99933.25;5012507;28;1881;-64
2022/09/09 09:06:05;;;;;;;;;;;;;;;30.33;28.32;99930.34;5012619;28;830;-63
2022/09/09 09:08:47;;;;;;;;;;;;;;;30.27;28.00;99932.47;5012604;28;883;-64
2022/09/09 09:11:20;;;;;;;;;;;;;;;30.27;27.84;99920.31;5012720;28;982;-64
2022/09/09 09:13:47;;;;;;;;;;;;;;;30.21;27.09;99926.06;4991396;28;1284;-64
2022/09/09 09:16:32;;;;;;;;;;;;;;;30.15;27.47;99921.75;4992817;28;881;-64
2022/09/09 09:18:59;;;;;;;;;;;;;;;30.27;27.49;99923.16;4992669;28;910;-63
2022/09/09 09:21:36;;;;;;;;;;;;;;;30.49;26.43;99907.84;4992715;28;846;-63
2022/09/09 09:24:06;;;;;;;;;;;;;;;30.35;26.99;99914.81;4992563;28;1906;-63
2022/09/09 09:26:37;;;;;;;;;;;;;;;30.20;27.60;99915.22;4992597;28;827;-63
2022/09/09 09:29:18;;;;;;;;;;;;;;;30.25;27.33;99908.66;4992703;28;815;-63
2022/09/09 09:31:49;;;;;;;;;;;;;;;30.38;26.88;99896.59;4992688;28;970;-63
2022/09/09 09:34:24;;;;;;;;;;;;;;;30.46;26.85;99898.31;4992685;28;835;-61
2022/09/09 09:37:01;;;;;;;;;;;;;;;30.28;26.89;99897.00;4992456;28;890;-63
2022/09/09 09:39:49;;;;;;;;;;;;;;;30.44;26.90;99891.59;4992484;28;834;-62
2022/09/09 09:48:22;;;;;;;;;;;;;;;30.98;25.62;99901.19;4992447;28;732;-61
2022/09/09 09:50:54;;;;;;;;;;;;;;;30.75;25.63;99892.97;4992334;28;820;-63
2022/09/09 09:53:24;;;;;;;;;;;;;;;30.53;25.47;99883.44;4992271;28;783;-62
2022/09/09 09:55:55;;;;;;;;;;;;;;;30.34;24.86;99879.78;4992294;28;909;-62
2022/09/09 09:58:21;;;;;;;;;;;;;;;30.57;25.36;99870.94;4992214;28;886;-63
2022/09/09 10:00:51;;;;;;;;;;;;;;;30.80;25.15;99871.38;4974739;28;1289;-63
2022/09/09 10:03:32;;;;;;;;;;;;;;;30.90;24.36;99873.31;4974602;28;1894;-63
2022/09/09 10:05:58;;;;;;;;;;;;;;;30.99;24.67;99869.25;4996978;28;1190;-63
2022/09/09 10:08:28;;;;;;;;;;;;;;;31.42;23.43;99864.63;4998661;28;792;-63
2022/09/09 10:10:59;;;;;;;;;;;;;;;31.06;23.84;99857.19;4998660;28;896;-63
2022/09/09 10:16:59;;;;;;;;;;;;;;;30.95;24.18;99870.91;4982892;28;1424;-62
2022/09/09 10:19:52;;;;;;;;;;;;;;;31.18;23.11;99862.75;4979273;28;830;-63
2022/09/09 10:22:21;;;;;;;;;;;;;;;31.10;23.28;99874.00;4979063;28;1964;-63
2022/09/09 10:25:06;;;;;;;;;;;;;;;31.36;23.36;99864.72;4978875;28;917;-62
2022/09/09 10:27:36;;;;;;;;;;;;;;;31.49;23.56;99869.72;4979114;28;811;-62
2022/09/09 10:30:24;;;;;;;;;;;;;;;31.52;22.74;99868.63;4978922;28;906;-62
2022/09/09 10:33:06;;;;;;;;;;;;;;;31.58;21.98;99874.22;4978856;28;808;-62
2022/09/09 10:35:39;;;;;;;;;;;;;;;31.90;22.51;99872.03;4961585;28;1281;-63
2022/09/09 10:38:15;;;;;;;;;;;;;;;32.09;21.75;99859.72;4978936;28;882;-63
2022/09/09 10:53:01;;;;;;;;;;;;;;;31.79;22.08;99849.38;4979076;28;630;-63
2022/09/09 10:55:35;;;;;;;;;;;;;;;32.05;22.29;99842.91;4979679;28;768;-63
2022/09/09 10:58:03;;;;;;;;;;;;;;;32.32;21.60;99843.59;4978706;28;1015;-63
2022/09/09 11:00:49;;;;;;;;;;;;;;;32.38;21.30;99840.63;4978666;28;835;-63
2022/09/09 11:03:36;;;;;;;;;;;;;;;32.54;22.04;99842.34;4978613;28;1959;-63
2022/09/09 11:06:17;;;;;;;;;;;;;;;32.82;21.42;99854.44;4978719;28;812;-64
2022/09/09 11:08:47;;;;;;;;;;;;;;;32.61;20.33;99849.47;4978656;28;875;-64
2022/09/09 11:11:17;;;;;;;;;;;;;;;32.62;20.72;99828.13;4979069;28;952;-63
2022/09/09 11:13:58;;;;;;;;;;;;;;;32.87;20.38;99814.22;4978510;28;922;-64
2022/09/09 11:16:28;;;;;;;;;;;;;;;33.32;19.90;99813.06;4976780;28;1268;-63
2022/09/09 11:18:58;;;;;;;;;;;;;;;33.78;20.04;99818.34;4975820;28;866;-61
2022/09/09 11:21:44;;;;;;;;;;;;;;;33.86;20.13;99813.41;4975835;28;851;-61
2022/09/09 11:24:16;;;;;;;;;;;;;;;33.68;21.13;99803.75;4975700;28;1911;-61
2022/09/09 11:26:53;;;;;;;;;;;;;;;33.37;21.87;99805.66;4975381;28;1194;-62
2022/09/09 11:29:23;;;;;;;;;;;;;;;33.60;23.41;99802.97;4975411;28;815;-61
2022/09/09 11:32:08;;;;;;;;;;;;;;;33.62;24.50;99797.44;4975188;28;795;-62
2022/09/09 11:35:05;;;;;;;;;;;;;;;33.25;26.28;99785.16;4975302;28;875;-62
2022/09/09 11:37:50;;;;;;;;;;;;;;;33.26;26.71;99792.41;4962989;28;1209;-62
2022/09/09 11:40:22;;;;;;;;;;;;;;;33.14;27.02;99791.22;4975609;28;808;-62
2022/09/09 11:42:51;;;;;;;;;;;;;;;32.93;27.62;99800.56;4975077;28;1936;-61
2022/09/09 11:45:46;;;;;;;;;;;;;;;32.81;28.02;99798.53;4975038;28;851;-63
2022/09/09 11:48:43;;;;;;;;;;;;;;;32.99;28.05;99800.41;4975027;28;886;-62
2022/09/09 11:51:13;;;;;;;;;;;;;;;33.33;27.78;99791.72;4974158;28;1421;-62
2022/09/09 11:53:58;;;;;;;;;;;;;;;33.58;27.40;99793.38;4974891;28;1048;-63
2022/09/09 11:56:26;;;;;;;;;;;;;;;33.62;27.65;99791.69;4974990;28;823;-61
2022/09/09 11:59:03;;;;;;;;;;;;;;;33.76;27.47;99790.25;4974823;28;811;-62
2022/09/09 12:01:34;;;;;;;;;;;;;;;33.94;27.01;99781.91;4974991;28;891;-62
2022/09/09 12:04:10;;;;;;;;;;;;;;;34.10;27.27;99774.13;4974600;28;1914;-62
2022/09/09 12:19:02;;;;;;;;;;;;;;;33.69;27.61;99765.19;4985647;28;1451;-63
2022/09/09 12:22:01;;;;;;;;;;;;;;;33.92;27.43;99773.09;4974412;28;835;-62
2022/09/09 12:24:36;;;;;;;;;;;;;;;34.28;27.22;99766.53;4956638;28;1930;-63
2022/09/09 12:27:12;;;;;;;;;;;;;;;34.70;26.63;99764.13;4956961;28;1266;-63
2022/09/09 12:42:21;;;;;;;;;;;;;;;34.50;26.73;99747.81;4974317;28;703;-62
2022/09/09 12:50:55;;;;;;;;;;;;;;;33.71;27.94;99738.81;4974128;28;705;-62
2022/09/09 12:56:32;;;;;;;;;;;;;;;33.31;28.91;99733.47;4953387;28;1160;-62
2022/09/09 12:59:01;;;;;;;;;;;;;;;33.31;29.58;99734.22;4973544;28;816;-62
2022/09/09 13:01:29;;;;;;;;;;;;;;;33.25;29.79;99732.84;4974048;28;823;-61
2022/09/09 13:03:58;;;;;;;;;;;;;;;33.12;30.06;99723.03;4973799;28;1894;-61
2022/09/09 13:06:26;;;;;;;;;;;;;;;33.02;30.05;99724.84;4973564;28;836;-62
2022/09/09 13:08:52;;;;;;;;;;;;;;;32.80;30.38;99731.97;4973584;28;882;-62
2022/09/09 13:11:38;;;;;;;;;;;;;;;32.73;29.83;99726.94;4973354;28;895;-62
2022/09/09 13:14:06;;;;;;;;;;;;;;;32.95;30.24;99723.47;4973700;28;867;-63
2022/09/09 13:16:33;;;;;;;;;;;;;;;33.09;29.46;99721.28;4973707;28;854;-62
2022/09/09 13:19:10;;;;;;;;;;;;;;;33.19;29.94;99715.81;4973467;28;1456;-64
2022/09/09 13:21:51;;;;;;;;;;;;;;;33.05;30.13;99709.44;4973262;28;859;-61
2022/09/09 13:24:31;;;;;;;;;;;;;;;33.02;30.29;99713.41;4973216;28;1950;-63
2022/09/09 13:27:20;;;;;;;;;;;;;;;32.71;30.90;99716.06;4973234;28;811;-63
2022/09/09 13:29:56;;;;;;;;;;;;;;;32.40;31.62;99703.56;4973107;28;889;-63
2022/09/09 13:32:24;;;;;;;;;;;;;;;32.07;31.92;99708.00;4973108;28;967;-64
2022/09/09 13:34:57;;;;;;;;;;;;;;;32.07;31.73;99705.94;4973181;28;836;-64
2022/09/09 13:37:27;;;;;;;;;;;;;;;32.21;31.75;99700.91;4973304;28;815;-65
2022/09/09 13:39:55;;;;;;;;;;;;;;;32.21;32.59;99706.63;4972731;28;883;-65
2022/09/09 13:42:26;;;;;;;;;;;;;;;31.98;33.95;99703.53;4972930;28;1958;-64
2022/09/09 13:44:53;;;;;;;;;;;;;;;32.11;33.88;99699.84;4973388;28;835;-65
2022/09/09 13:47:38;;;;;;;;;;;;;;;32.18;32.53;99698.38;4973228;28;890;-64
2022/09/09 13:50:32;;;;;;;;;;;;;;;31.91;33.19;99702.09;4972888;28;890;-64
2022/09/09 13:53:04;;;;;;;;;;;;;;;31.95;33.72;99701.75;4971101;28;1502;-65
2022/09/09 13:55:39;;;;;;;;;;;;;;;32.05;33.51;99711.44;4972829;28;875;-64
2022/09/09 13:58:05;;;;;;;;;;;;;;;31.86;33.71;99711.56;4972651;28;903;-64
2022/09/09 14:00:32;;;;;;;;;;;;;;;31.67;33.93;99708.13;4972862;28;827;-64
2022/09/09 14:03:03;;;;;;;;;;;;;;;31.43;34.24;99700.56;4972670;28;1887;-64
2022/09/09 14:05:32;;;;;;;;;;;;;;;31.38;34.33;99696.47;4955489;28;1193;-64
2022/09/09 14:08:00;;;;;;;;;;;;;;;31.33;34.62;99703.09;4972955;28;899;-63
2022/09/09 14:10:36;;;;;;;;;;;;;;;31.42;33.88;99696.91;4972715;28;939;-64
2022/09/09 14:13:03;;;;;;;;;;;;;;;31.37;33.84;99697.81;4972620;28;950;-64
2022/09/09 14:15:30;;;;;;;;;;;;;;;31.16;34.58;99683.44;4972621;28;899;-64
2022/09/09 14:17:58;;;;;;;;;;;;;;;31.01;34.89;99689.72;4972627;28;902;-62
2022/09/09 14:20:25;;;;;;;;;;;;;;;31.06;35.06;99690.91;4971822;28;1231;-64
2022/09/09 14:22:57;;;;;;;;;;;;;;;31.30;34.64;99689.91;4990753;28;1922;-64
2022/09/09 14:25:23;;;;;;;;;;;;;;;31.57;34.59;99678.47;4992003;28;839;-64
2022/09/09 14:27:51;;;;;;;;;;;;;;;31.49;34.88;99682.03;4974373;28;862;-65